Alert Airport, Northwest Territories

10:52 AM MST on February 09, 2016 (GMT -0700)
Alert | | Change Station
CLOSE
Current Station
Airport
Location: Alert Airport,
Elevation: 102 ft
Nearby Weather Stations

Elev 102 ft 82.52 °N, 62.28 °W | Updated 52 minutes ago

Light Snow
Light Snow
-24 °F
Feels Like -42 °F
N
7
Wind Variable Wind from NNW

Today
High -- | Low -- °F
--% Chance of Precip.
Yesterday
High -- | Low -- °F
Precip. -- in
Pressure 30.21 in
Visibility 7.0 miles
Clouds Overcast 2400 ft
Windchill -42 °F
Dew Point -33 °F
Humidity 63%
Rainfall 0.00 in
Snow Depth Not available.
5:00 PM 5:00 PM
New Moon, 2% visible
METAR CYLT 091700Z 33006KT 7SM -SN OVC024 M31/M36 A3019 RMK SC8 SLP228
Pressure 30.21 in
Visibility 7.0 miles
Clouds Overcast 2400 ft
Windchill -42 °F
Dew Point -33 °F
Humidity 63%
Rainfall 0.00 in
Snow Depth Not available.
5:00 PM 5:00 PM
New Moon, 2% visible
METAR CYLT 091700Z 33006KT 7SM -SN OVC024 M31/M36 A3019 RMK SC8 SLP228

10-Day Weather Forecast

No radar image for this location.
×

Almanac

Astronomy

Feb. 09, 2016 Rise Set
Actual Time
Civil Twilight
Nautical Twilight
Astronomical Twilight
Moon
Length of Visible Light
Length of Day
Tomorrow will be .
, % of the Moon is Illuminated

Today's Extremes

Country Highs Country Lows

Community

WunderPhotos

Upload Photos

1,891,650 photos uploaded!

WunderBlog® & News

Nearby

Air Quality

  Air Quality AQ Index Pollutant
Not available.

Snow Depth

Station Depth Elevation

Earthquake Activity

City Distance Mag. Time & Date
Minimum magnitude displayed is 2.5.

Coastal Water Temperatures

Place Temperature

Stations

Nearby Weather Stations

Station Location Temp. Windchill Dew Point Humidity Wind Precip. Elev Updated Type
                   

Watches & Warnings

There are currently no watches in effect.